createdAt,value
2022-12-02T00:00:16.766Z,47.80
2022-12-02T00:03:21.096Z,50.40
2022-12-02T00:06:32.910Z,47.33
2022-12-02T00:09:36.005Z,48.65
2022-12-02T00:12:37.439Z,43.83
2022-12-02T00:15:43.566Z,50.08
2022-12-02T00:18:45.104Z,52.03
2022-12-02T00:21:48.149Z,53.47
2022-12-02T00:24:50.425Z,50.17
2022-12-02T00:30:54.069Z,53.35
2022-12-02T00:33:57.922Z,57.00
2022-12-02T00:36:59.326Z,55.30
2022-12-02T00:40:00.730Z,54.13
2022-12-02T00:43:21.475Z,52.08
2022-12-02T00:46:31.972Z,58.13
2022-12-02T00:49:33.420Z,54.35
2022-12-02T00:52:34.932Z,53.83
2022-12-02T00:55:36.306Z,56.63
2022-12-02T00:58:37.694Z,52.63
2022-12-02T01:01:41.018Z,49.70
2022-12-02T01:04:42.515Z,55.83
2022-12-02T01:07:44.407Z,51.63
2022-12-02T01:10:45.885Z,53.97
2022-12-02T01:13:47.538Z,52.33
2022-12-02T01:19:51.444Z,53.85
2022-12-02T01:22:52.926Z,55.70
2022-12-02T01:25:54.327Z,54.73
2022-12-02T01:28:55.793Z,54.15
2022-12-02T01:31:57.420Z,56.63
2022-12-02T01:34:59.051Z,54.65
2022-12-02T01:38:00.526Z,55.13
2022-12-02T01:41:02.884Z,52.30
2022-12-02T01:44:04.479Z,56.88
2022-12-02T01:47:06.247Z,51.60
2022-12-02T01:50:10.668Z,53.83
2022-12-02T01:53:12.450Z,54.97
2022-12-02T01:56:13.893Z,57.05
2022-12-02T01:59:16.508Z,62.65
2022-12-02T02:02:35.693Z,57.67
2022-12-02T02:05:38.611Z,55.50
2022-12-02T02:08:40.175Z,65.30
2022-12-02T02:11:42.063Z,56.33
2022-12-02T02:14:43.750Z,60.70
2022-12-02T02:17:45.491Z,59.30
2022-12-02T02:20:48.898Z,60.80
2022-12-02T02:23:51.179Z,58.40
2022-12-02T02:26:52.801Z,56.33
2022-12-02T02:29:54.247Z,61.70
2022-12-02T02:32:57.130Z,58.03
2022-12-02T02:39:01.335Z,62.33
2022-12-02T02:42:03.082Z,63.13
2022-12-02T02:45:05.144Z,64.68
2022-12-02T02:48:08.576Z,59.88
2022-12-02T02:51:12.144Z,62.63
2022-12-02T02:54:14.581Z,59.58
2022-12-02T02:57:16.299Z,60.53
2022-12-02T03:00:19.506Z,62.80
2022-12-02T03:03:25.921Z,58.20
2022-12-02T03:06:29.669Z,70.82
2022-12-02T03:09:31.828Z,65.47
2022-12-02T03:12:34.122Z,58.17
2022-12-02T03:15:35.812Z,57.42
2022-12-02T03:18:38.413Z,56.85
2022-12-02T03:21:40.707Z,57.95
2022-12-02T03:24:42.380Z,60.67
2022-12-02T03:27:43.843Z,61.95
2022-12-02T03:30:45.681Z,69.68
2022-12-02T03:33:47.511Z,64.32
2022-12-02T03:36:48.996Z,56.45
2022-12-02T03:39:51.344Z,63.80
2022-12-02T03:42:52.891Z,59.63
2022-12-02T03:45:56.365Z,63.13
2022-12-02T03:48:59.540Z,66.40
2022-12-02T03:52:01.176Z,58.17
2022-12-02T03:55:03.366Z,65.53
2022-12-02T03:58:08.391Z,68.72
2022-12-02T04:01:09.896Z,68.88
2022-12-02T04:04:11.470Z,67.70
2022-12-02T04:07:12.915Z,63.97
2022-12-02T04:10:14.335Z,63.22
2022-12-02T04:13:15.839Z,61.90
2022-12-02T04:16:17.317Z,70.97
2022-12-02T04:19:18.777Z,67.27
2022-12-02T04:22:20.253Z,57.70
2022-12-02T04:25:21.862Z,66.88
2022-12-02T04:28:23.596Z,74.37
2022-12-02T04:31:25.111Z,66.70
2022-12-02T04:34:26.558Z,67.63
2022-12-02T04:37:27.959Z,64.90
2022-12-02T04:40:29.379Z,69.80
2022-12-02T04:43:30.785Z,71.78
2022-12-02T04:46:32.327Z,74.03
2022-12-02T04:49:33.939Z,64.80
2022-12-02T04:52:35.630Z,69.77
2022-12-02T04:55:36.998Z,71.15
2022-12-02T04:58:38.945Z,77.88
2022-12-02T05:01:40.330Z,64.70
2022-12-02T05:04:41.844Z,72.30
2022-12-02T05:07:43.384Z,76.67
2022-12-02T05:10:45.278Z,74.57
2022-12-02T05:13:46.709Z,75.53
2022-12-02T05:16:48.235Z,68.95
2022-12-02T05:19:49.728Z,68.10
2022-12-02T05:22:51.128Z,69.73
2022-12-02T05:25:52.511Z,67.68
2022-12-02T05:28:53.886Z,68.70
2022-12-02T05:31:55.355Z,68.35
2022-12-02T05:34:56.870Z,67.70
2022-12-02T05:38:04.433Z,70.40
2022-12-02T05:41:06.731Z,66.88
2022-12-02T05:44:39.360Z,67.07
2022-12-02T05:47:41.337Z,62.85
2022-12-02T05:50:45.159Z,60.95
2022-12-02T05:53:49.704Z,61.17
2022-12-02T05:56:51.123Z,59.80
2022-12-02T05:59:57.795Z,61.00
2022-12-02T06:03:02.535Z,62.63
2022-12-02T06:06:10.007Z,56.75
2022-12-02T06:09:17.707Z,64.38
2022-12-02T06:12:20.843Z,58.10
2022-12-02T06:15:22.284Z,59.92
2022-12-02T06:18:32.184Z,58.63
2022-12-02T06:21:33.650Z,61.08
2022-12-02T06:24:36.559Z,56.00
2022-12-02T06:27:38.126Z,55.38
2022-12-02T06:30:40.552Z,52.23
2022-12-02T06:36:43.655Z,51.75
2022-12-02T06:40:11.896Z,49.70
2022-12-02T06:43:20.028Z,53.80
2022-12-02T06:46:21.548Z,51.65
2022-12-02T06:49:25.514Z,55.30
2022-12-02T06:52:26.923Z,48.35
2022-12-02T06:55:36.391Z,56.63
2022-12-02T06:58:47.078Z,56.92
2022-12-02T07:01:48.660Z,56.53
2022-12-02T07:04:52.347Z,58.38
2022-12-02T07:07:54.065Z,60.92
2022-12-02T07:10:55.665Z,52.10
2022-12-02T07:13:57.090Z,57.87
2022-12-02T07:17:26.548Z,60.42
2022-12-02T07:20:34.564Z,52.58
2022-12-02T07:23:36.495Z,56.40
2022-12-02T07:26:37.915Z,61.58
2022-12-02T07:29:39.321Z,58.88
2022-12-02T07:32:40.724Z,56.08
2022-12-02T07:35:42.090Z,52.55
2022-12-02T07:39:05.148Z,53.00
2022-12-02T07:42:05.735Z,57.78
2022-12-02T07:45:07.805Z,60.10
2022-12-02T07:48:09.286Z,59.10
2022-12-02T07:51:10.706Z,53.78
2022-12-02T07:54:12.131Z,60.92
2022-12-02T07:57:13.594Z,56.50
2022-12-02T08:00:15.654Z,59.03
2022-12-02T08:03:17.071Z,60.40
2022-12-02T08:06:18.468Z,56.75
2022-12-02T08:09:19.940Z,62.27
2022-12-02T08:12:21.558Z,63.83
2022-12-02T08:15:23.076Z,56.70
2022-12-02T08:18:24.537Z,62.70
2022-12-02T08:21:26.063Z,58.97
2022-12-02T08:24:27.461Z,57.17
2022-12-02T08:27:28.925Z,60.42
2022-12-02T08:30:30.496Z,62.37
2022-12-02T08:33:31.949Z,57.60
2022-12-02T08:36:34.317Z,55.92
2022-12-02T08:39:35.818Z,66.15
2022-12-02T08:42:37.249Z,68.57
2022-12-02T08:45:38.721Z,59.15
2022-12-02T08:48:40.099Z,66.43
2022-12-02T08:51:41.590Z,69.65
2022-12-02T08:54:45.501Z,72.53
2022-12-02T08:57:46.917Z,66.60
2022-12-02T09:00:48.318Z,61.60
2022-12-02T09:03:49.695Z,60.78
2022-12-02T09:06:51.258Z,54.83
2022-12-02T09:09:52.635Z,56.33
2022-12-02T09:12:54.127Z,58.78
2022-12-02T09:15:55.539Z,59.63
2022-12-02T09:18:58.218Z,62.25
2022-12-02T09:21:59.637Z,58.15
2022-12-02T09:25:01.010Z,53.03
2022-12-02T09:28:02.403Z,60.95
2022-12-02T09:31:03.937Z,60.20
2022-12-02T09:34:05.406Z,59.40
2022-12-02T09:37:06.835Z,60.42
2022-12-02T09:40:09.491Z,57.60
2022-12-02T09:43:11.027Z,56.70
2022-12-02T09:46:12.644Z,64.07
2022-12-02T09:49:14.318Z,58.58
2022-12-02T09:52:27.132Z,54.77
2022-12-02T09:55:28.578Z,58.53
2022-12-02T09:58:30.110Z,52.33
2022-12-02T10:01:31.558Z,61.17
2022-12-02T10:04:34.076Z,58.63
2022-12-02T10:10:40.349Z,50.03
2022-12-02T10:13:42.370Z,52.38
2022-12-02T10:16:44.376Z,53.97
2022-12-02T10:19:46.984Z,56.85
2022-12-02T10:23:07.189Z,54.00
2022-12-02T10:26:13.999Z,54.20
2022-12-02T10:29:19.504Z,60.78
2022-12-02T10:32:23.976Z,55.17
2022-12-02T10:35:25.654Z,60.78
2022-12-02T10:38:43.942Z,58.95
2022-12-02T10:41:46.268Z,55.25
2022-12-02T10:48:16.791Z,57.83
2022-12-02T10:51:21.076Z,56.15
2022-12-02T10:54:29.069Z,50.53
2022-12-02T10:57:33.268Z,51.13
2022-12-02T11:00:37.343Z,60.72
2022-12-02T11:03:42.373Z,49.67
2022-12-02T11:06:44.589Z,59.20
2022-12-02T11:09:51.123Z,50.35
2022-12-02T11:12:52.468Z,52.20
2022-12-02T11:15:54.119Z,54.92
2022-12-02T11:19:23.355Z,54.65
2022-12-02T11:22:48.440Z,54.85
2022-12-02T11:25:52.602Z,52.50
2022-12-02T11:29:16.612Z,58.15
2022-12-02T11:32:39.457Z,51.63
2022-12-02T11:36:19.661Z,53.25
2022-12-02T11:39:41.756Z,54.33
2022-12-02T11:42:44.867Z,53.90
2022-12-02T11:45:46.239Z,49.35
2022-12-02T11:48:51.432Z,55.55
2022-12-02T11:52:07.877Z,50.10
2022-12-02T11:55:15.400Z,80.18
2022-12-02T11:58:27.292Z,56.88
2022-12-02T12:01:30.111Z,59.33
2022-12-02T12:04:31.557Z,52.30
2022-12-02T12:07:50.745Z,54.33
2022-12-02T12:11:16.226Z,61.47
2022-12-02T12:14:23.512Z,54.78
2022-12-02T12:17:44.547Z,46.85
2022-12-02T12:20:46.319Z,50.47
2022-12-02T12:23:47.686Z,54.83
2022-12-02T12:26:56.538Z,52.58
2022-12-02T12:29:57.943Z,54.92
2022-12-02T12:32:59.446Z,61.10
2022-12-02T12:36:00.923Z,56.43
2022-12-02T12:39:02.960Z,52.70
2022-12-02T12:42:04.449Z,55.63
2022-12-02T12:45:06.314Z,56.90
2022-12-02T12:48:07.761Z,48.92
2022-12-02T12:51:09.746Z,54.08
2022-12-02T12:54:11.196Z,54.92
2022-12-02T12:57:12.634Z,49.75
2022-12-02T13:00:14.841Z,55.78
2022-12-02T13:03:16.388Z,54.20
2022-12-02T13:06:18.312Z,52.40
2022-12-02T13:09:20.324Z,58.17
2022-12-02T13:12:21.770Z,56.83
2022-12-02T13:15:23.244Z,52.83
2022-12-02T13:18:24.824Z,50.33
2022-12-02T13:21:26.296Z,58.37
2022-12-02T13:24:27.718Z,60.15
2022-12-02T13:27:29.186Z,60.22
2022-12-02T13:30:30.797Z,62.45
2022-12-02T13:33:32.297Z,61.05
2022-12-02T13:36:33.723Z,56.30
2022-12-02T13:39:35.211Z,56.25
2022-12-02T13:42:36.676Z,65.37
2022-12-02T13:45:39.193Z,60.90
2022-12-02T13:51:41.925Z,57.17
2022-12-02T13:54:43.726Z,55.75
2022-12-02T13:57:45.216Z,57.70
2022-12-02T14:00:46.604Z,59.00
2022-12-02T14:03:48.167Z,56.67
2022-12-02T14:06:49.571Z,58.38
2022-12-02T14:09:50.995Z,63.05
2022-12-02T14:12:53.937Z,62.42
2022-12-02T14:15:55.415Z,60.08
2022-12-02T14:18:57.698Z,59.63
2022-12-02T14:25:00.625Z,62.55
2022-12-02T14:28:02.044Z,62.97
2022-12-02T14:31:03.539Z,65.50
2022-12-02T14:34:13.642Z,59.53
2022-12-02T14:37:15.662Z,59.63
2022-12-02T14:40:17.091Z,60.10
2022-12-02T14:43:18.535Z,65.82
2022-12-02T14:46:20.168Z,61.85
2022-12-02T14:52:43.079Z,63.83
2022-12-02T14:55:44.478Z,62.47
2022-12-02T14:58:45.862Z,58.10
2022-12-02T15:01:47.359Z,65.97
2022-12-02T15:04:48.893Z,61.30
2022-12-02T15:07:50.447Z,62.97
2022-12-02T15:10:51.912Z,66.03
2022-12-02T15:13:53.334Z,69.80
2022-12-02T15:16:54.821Z,63.53
2022-12-02T15:19:57.063Z,65.43
2022-12-02T15:22:58.581Z,64.07
2022-12-02T15:25:59.980Z,63.97
2022-12-02T15:29:01.409Z,67.35
2022-12-02T15:32:03.018Z,65.78
2022-12-02T15:35:04.938Z,67.10
2022-12-02T15:38:06.360Z,67.38
2022-12-02T15:41:07.819Z,65.85
2022-12-02T15:44:09.237Z,65.27
2022-12-02T15:47:10.725Z,65.43
2022-12-02T15:50:12.297Z,59.17
2022-12-02T15:53:13.721Z,67.03
2022-12-02T15:56:15.810Z,62.25
2022-12-02T15:59:17.341Z,67.00
2022-12-02T16:02:18.858Z,62.93
2022-12-02T16:05:21.495Z,61.47
2022-12-02T16:08:23.025Z,60.33
2022-12-02T16:11:24.576Z,60.40
2022-12-02T16:14:26.103Z,55.57
2022-12-02T16:17:27.879Z,62.07
2022-12-02T16:20:29.342Z,54.20
2022-12-02T16:23:30.828Z,56.03
2022-12-02T16:26:32.290Z,58.88
2022-12-02T16:29:33.738Z,58.00
2022-12-02T16:32:35.225Z,59.10
2022-12-02T16:35:36.684Z,62.07
2022-12-02T16:38:38.166Z,67.23
2022-12-02T16:41:39.656Z,56.97
2022-12-02T16:44:41.393Z,55.97
2022-12-02T16:47:43.119Z,59.30
2022-12-02T16:50:44.625Z,52.25
2022-12-02T16:53:46.061Z,54.93
2022-12-02T16:56:51.274Z,51.78
2022-12-02T16:59:57.005Z,44.72
2022-12-02T17:02:58.704Z,51.10
2022-12-02T17:06:00.362Z,42.80
2022-12-02T17:09:02.025Z,44.40
2022-12-02T17:12:03.707Z,42.60
2022-12-02T17:15:05.649Z,47.38
2022-12-02T17:18:07.356Z,38.03
2022-12-02T17:21:08.978Z,38.30
2022-12-02T17:24:10.418Z,37.40
2022-12-02T17:27:11.852Z,37.35
2022-12-02T17:30:13.842Z,39.80
2022-12-02T17:33:15.365Z,34.85
2022-12-02T17:36:16.805Z,38.60
2022-12-02T17:39:18.231Z,36.40
2022-12-02T17:42:19.658Z,34.05
2022-12-02T17:45:21.149Z,31.85
2022-12-02T17:48:22.628Z,33.17
2022-12-02T17:51:24.060Z,35.85
2022-12-02T17:54:25.492Z,31.35
2022-12-02T17:57:26.957Z,35.08
2022-12-02T18:00:28.349Z,34.97
2022-12-02T18:03:29.898Z,28.95
2022-12-02T18:06:31.351Z,28.70
2022-12-02T18:09:32.802Z,34.75
2022-12-02T18:12:34.364Z,29.70
2022-12-02T18:15:35.934Z,30.02
2022-12-02T18:18:37.392Z,30.60
2022-12-02T18:21:38.960Z,30.08
2022-12-02T18:24:40.367Z,30.50
2022-12-02T18:27:41.847Z,25.95
2022-12-02T18:30:43.717Z,32.22
2022-12-02T18:33:45.278Z,25.08
2022-12-02T18:36:46.742Z,25.87
2022-12-02T18:39:48.171Z,24.27
2022-12-02T18:42:49.794Z,26.97
2022-12-02T18:45:52.567Z,25.17
2022-12-02T18:48:54.079Z,21.70
2022-12-02T18:51:55.568Z,20.17
2022-12-02T18:54:56.984Z,21.53
2022-12-02T18:57:58.434Z,21.20
2022-12-02T19:00:59.903Z,24.92
2022-12-02T19:04:01.518Z,19.10
2022-12-02T19:07:02.976Z,22.17
2022-12-02T19:10:05.779Z,20.67
2022-12-02T19:13:07.363Z,19.70
2022-12-02T19:16:08.979Z,20.57
2022-12-02T19:19:10.501Z,29.90
2022-12-02T19:22:11.904Z,29.13
2022-12-02T19:25:13.316Z,26.55
2022-12-02T19:28:14.771Z,24.90
2022-12-02T19:31:16.220Z,25.67
2022-12-02T19:34:17.750Z,21.40
2022-12-02T19:37:19.240Z,25.20
2022-12-02T19:40:20.656Z,24.83
2022-12-02T19:43:22.128Z,25.67
2022-12-02T19:46:23.602Z,25.03
2022-12-02T19:49:25.095Z,26.58
2022-12-02T19:52:26.572Z,23.57
2022-12-02T19:55:28.019Z,21.95
2022-12-02T19:58:29.487Z,21.70
2022-12-02T20:01:35.669Z,21.03
2022-12-02T20:04:41.759Z,21.20
2022-12-02T20:07:44.128Z,20.60
2022-12-02T20:10:45.787Z,20.85
2022-12-02T20:13:47.243Z,22.00
2022-12-02T20:16:48.733Z,20.63
2022-12-02T20:19:50.416Z,26.03
2022-12-02T20:22:52.653Z,21.67
2022-12-02T20:25:54.230Z,24.35
2022-12-02T20:28:55.716Z,21.20
2022-12-02T20:31:57.194Z,27.67
2022-12-02T20:34:58.608Z,21.90
2022-12-02T20:38:01.622Z,22.42
2022-12-02T20:41:03.164Z,21.30
2022-12-02T20:44:05.098Z,21.90
2022-12-02T20:47:06.685Z,21.38
2022-12-02T20:50:09.003Z,26.75
2022-12-02T20:53:10.456Z,22.13
2022-12-02T20:56:11.962Z,21.05
2022-12-02T20:59:13.394Z,23.17
2022-12-02T21:02:14.899Z,23.38
2022-12-02T21:05:16.360Z,23.50
2022-12-02T21:08:17.851Z,21.43
2022-12-02T21:11:19.301Z,21.15
2022-12-02T21:14:20.746Z,21.33
2022-12-02T21:17:22.222Z,24.33
2022-12-02T21:20:23.837Z,24.92
2022-12-02T21:23:25.412Z,24.40
2022-12-02T21:26:26.857Z,20.10
2022-12-02T21:29:28.437Z,22.40
2022-12-02T21:32:29.978Z,20.53
2022-12-02T21:35:31.588Z,23.50
2022-12-02T21:38:33.422Z,23.47
2022-12-02T21:41:34.901Z,25.10
2022-12-02T21:44:36.355Z,21.97
2022-12-02T21:47:38.161Z,19.60
2022-12-02T21:50:39.698Z,24.00
2022-12-02T21:53:41.160Z,25.27
2022-12-02T21:56:42.586Z,20.10
2022-12-02T21:59:44.086Z,20.93
2022-12-02T22:02:45.548Z,20.50
2022-12-02T22:05:46.996Z,20.27
2022-12-02T22:08:48.423Z,20.08
2022-12-02T22:11:49.868Z,22.92
2022-12-02T22:14:52.292Z,21.63
2022-12-02T22:17:54.084Z,18.95
2022-12-02T22:20:55.610Z,20.20
2022-12-02T22:23:57.028Z,22.90
2022-12-02T22:26:58.433Z,25.73
2022-12-02T22:29:59.906Z,54.17
2022-12-02T22:33:01.361Z,29.63
2022-12-02T22:36:02.942Z,25.98
2022-12-02T22:39:05.658Z,25.27
2022-12-02T22:42:07.140Z,30.75
2022-12-02T22:45:10.205Z,28.53
2022-12-02T22:48:11.611Z,30.00
2022-12-02T22:51:13.035Z,26.08
2022-12-02T22:54:14.555Z,22.30
2022-12-02T22:57:16.028Z,21.97
2022-12-02T23:00:18.229Z,22.08
2022-12-02T23:03:19.787Z,21.30
2022-12-02T23:06:21.220Z,23.97
2022-12-02T23:09:22.635Z,19.85
2022-12-02T23:12:25.637Z,22.10
2022-12-02T23:15:37.038Z,21.23
2022-12-02T23:18:39.440Z,20.85
2022-12-02T23:21:40.872Z,22.88
2022-12-02T23:24:42.362Z,21.83
2022-12-02T23:27:44.604Z,24.00
2022-12-02T23:30:46.086Z,22.17
2022-12-02T23:33:47.554Z,19.17
2022-12-02T23:36:48.988Z,21.33
2022-12-02T23:39:50.514Z,21.73
2022-12-02T23:42:52.270Z,20.93
2022-12-02T23:45:53.738Z,20.73
2022-12-02T23:48:55.224Z,22.60
2022-12-02T23:51:56.716Z,22.48
2022-12-02T23:54:58.222Z,21.97
2022-12-02T23:57:59.753Z,23.37
